Time;durP1;ratioP1;P1;durP2;ratioP2;P2;SDS_P1;SDS_P2;PMS_P1;PMS_P2;Temp;Humidity;BMP_temperature;BMP_pressure;BME280_temperature;BME280_humidity;BME280_pressure;Samples;Min_cycle;Max_cycle;Signal;HPM_P1;HPM_P2
2024/03/07 00:02:09;;;;;;;52.57;33.00;;;6.30;50.70;;;;;;5033466;28;20705;-70
2024/03/07 00:04:36;;;;;;;56.90;33.47;;;6.20;50.30;;;;;;5034923;28;20195;-70
2024/03/07 00:07:05;;;;;;;51.47;31.07;;;6.20;51.00;;;;;;5035951;28;20418;-70
2024/03/07 00:09:34;;;;;;;91.07;31.10;;;6.20;51.60;;;;;;5033053;28;20480;-71
2024/03/07 00:12:00;;;;;;;50.90;33.03;;;6.20;50.90;;;;;;5031412;28;20441;-69
2024/03/07 00:14:26;;;;;;;49.30;32.10;;;6.20;51.00;;;;;;5029948;28;20434;-69
2024/03/07 00:16:56;;;;;;;53.00;31.50;;;6.30;51.20;;;;;;5031301;28;20462;-70
2024/03/07 00:19:25;;;;;;;55.70;33.80;;;6.30;51.20;;;;;;5030367;28;20415;-70
2024/03/07 00:21:51;;;;;;;50.20;31.87;;;6.30;50.80;;;;;;5031177;28;20513;-71
2024/03/07 00:24:17;;;;;;;47.73;32.10;;;6.20;50.20;;;;;;5031083;28;20785;-72
2024/03/07 00:26:42;;;;;;;53.63;32.10;;;6.20;49.10;;;;;;5031091;28;20433;-69
2024/03/07 00:29:08;;;;;;;47.17;28.00;;;6.20;49.10;;;;;;5031039;28;20193;-69
2024/03/07 00:31:34;;;;;;;43.70;27.60;;;6.30;49.30;;;;;;5029452;28;20316;-69
2024/03/07 00:33:59;;;;;;;41.13;26.90;;;6.30;48.70;;;;;;5030824;28;20176;-69
2024/03/07 00:36:25;;;;;;;53.80;30.37;;;6.20;47.30;;;;;;5029974;28;20698;-70
2024/03/07 00:38:52;;;;;;;45.93;28.57;;;6.20;46.10;;;;;;5030985;28;20206;-70
2024/03/07 00:41:17;;;;;;;51.10;30.03;;;6.30;47.00;;;;;;5039467;28;20441;-69
2024/03/07 00:43:43;;;;;;;40.73;28.00;;;6.30;45.00;;;;;;5050902;28;20497;-69
2024/03/07 00:46:10;;;;;;;47.53;28.53;;;6.30;44.40;;;;;;5050721;28;20184;-69
2024/03/07 00:48:36;;;;;;;45.00;28.10;;;6.30;43.40;;;;;;5033094;28;20198;-70
2024/03/07 00:51:03;;;;;;;40.30;27.20;;;6.20;42.90;;;;;;5031594;28;20468;-70
2024/03/07 00:53:28;;;;;;;41.20;26.13;;;6.10;43.40;;;;;;5033479;28;20950;-70
2024/03/07 00:55:54;;;;;;;45.87;29.50;;;6.10;43.60;;;;;;5034225;28;20463;-70
2024/03/07 00:58:20;;;;;;;39.93;26.47;;;6.00;45.30;;;;;;5034283;28;20190;-70
2024/03/07 01:00:45;;;;;;;47.83;28.47;;;6.00;44.00;;;;;;5046012;28;20200;-71
2024/03/07 01:03:11;;;;;;;42.20;26.43;;;6.00;44.70;;;;;;5042954;28;20652;-71
2024/03/07 01:05:38;;;;;;;43.00;27.10;;;6.00;46.40;;;;;;5052769;28;20672;-72
2024/03/07 01:08:04;;;;;;;51.20;27.53;;;6.10;46.20;;;;;;5053864;28;20554;-70
2024/03/07 01:10:29;;;;;;;43.77;25.67;;;6.10;44.40;;;;;;5053990;28;20837;-71
2024/03/07 01:13:00;;;;;;;42.17;29.10;;;6.10;46.60;;;;;;5052736;28;20417;-69
2024/03/07 01:15:26;;;;;;;45.10;28.70;;;;;;;;;;5053753;28;20180;-70
2024/03/07 01:17:52;;;;;;;35.47;22.70;;;;;;;;;;5053553;28;20813;-71
2024/03/07 01:20:18;;;;;;;38.77;26.80;;;;;;;;;;5052628;28;20441;-70
2024/03/07 01:22:44;;;;;;;42.23;27.67;;;;;;;;;;5054045;28;20409;-71
2024/03/07 01:25:12;;;;;;;41.10;25.63;;;;;;;;;;5053970;28;20465;-70
2024/03/07 01:27:38;;;;;;;40.47;26.43;;;5.90;73.20;;;;;;5053595;28;20426;-71
2024/03/07 01:30:07;;;;;;;42.13;27.50;;;;;;;;;;5053816;28;20423;-70
2024/03/07 01:32:33;;;;;;;38.17;22.77;;;6.00;69.20;;;;;;5043223;28;20805;-69
2024/03/07 01:34:59;;;;;;;35.67;25.13;;;5.90;75.10;;;;;;5033453;28;20410;-69
2024/03/07 01:37:25;;;;;;;41.03;24.90;;;;;;;;;;5033640;28;20253;-68
2024/03/07 01:39:50;;;;;;;32.90;22.90;;;5.80;77.70;;;;;;5033683;28;20176;-69
2024/03/07 01:42:16;;;;;;;41.17;26.43;;;;;;;;;;5033499;28;20949;-69
2024/03/07 01:44:43;;;;;;;41.67;26.17;;;;;;;;;;5033255;28;20180;-69
2024/03/07 01:47:10;;;;;;;42.63;24.83;;;;;;;;;;5033406;28;20436;-69
2024/03/07 01:49:36;;;;;;;35.10;22.53;;;;;;;;;;5033432;28;20500;-68
2024/03/07 01:52:03;;;;;;;34.97;22.43;;;;;;;;;;5033406;28;20441;-69
2024/03/07 01:54:30;;;;;;;43.83;29.57;;;;;;;;;;5033241;28;20418;-68
2024/03/07 01:56:56;;;;;;;37.17;25.27;;;;;;;;;;5033312;28;20832;-69
2024/03/07 01:59:23;;;;;;;41.83;27.17;;;;;;;;;;5033296;28;20776;-69
2024/03/07 02:01:50;;;;;;;46.27;26.77;;;;;;;;;;5032670;28;20437;-70
2024/03/07 02:04:16;;;;;;;43.87;28.40;;;;;;;;;;5032936;28;20410;-70
2024/03/07 02:06:42;;;;;;;38.70;25.90;;;5.10;71.50;;;;;;5033214;28;20747;-69
2024/03/07 02:09:08;;;;;;;40.20;24.77;;;4.90;70.80;;;;;;5033059;28;20417;-69
2024/03/07 02:11:33;;;;;;;42.30;26.40;;;4.90;71.40;;;;;;5037031;28;20456;-69
2024/03/07 02:13:59;;;;;;;44.70;26.33;;;4.80;70.00;;;;;;5032533;28;20410;-69
2024/03/07 02:16:25;;;;;;;46.80;28.13;;;4.80;70.00;;;;;;5032719;28;20218;-69
2024/03/07 02:18:50;;;;;;;48.20;27.23;;;4.70;57.10;;;;;;5032605;28;20225;-69
2024/03/07 02:21:16;;;;;;;48.50;28.47;;;4.70;57.70;;;;;;5032800;28;20431;-69
2024/03/07 02:23:42;;;;;;;48.03;28.23;;;4.70;57.70;;;;;;5032687;28;20178;-69
2024/03/07 02:26:08;;;;;;;43.00;26.13;;;4.60;55.20;;;;;;5032484;28;20416;-69
2024/03/07 02:28:36;;;;;;;49.90;25.63;;;4.60;56.10;;;;;;5052353;28;20701;-69
2024/03/07 02:31:02;;;;;;;43.77;25.90;;;4.60;55.40;;;;;;5051488;28;20712;-69
2024/03/07 02:33:27;;;;;;;46.70;27.40;;;4.50;54.50;;;;;;5052436;28;20420;-69
2024/03/07 02:35:53;;;;;;;44.13;29.33;;;4.50;54.10;;;;;;5052315;28;20236;-71
2024/03/07 02:38:19;;;;;;;45.80;27.97;;;4.50;53.80;;;;;;5052328;28;20248;-70
2024/03/07 02:40:46;;;;;;;44.03;26.30;;;4.50;52.50;;;;;;5052357;28;20204;-70
2024/03/07 02:43:12;;;;;;;51.07;28.10;;;4.40;52.90;;;;;;5032894;28;20476;-70
2024/03/07 02:45:37;;;;;;;40.37;25.97;;;4.30;49.80;;;;;;5030959;28;20429;-70
2024/03/07 02:48:05;;;;;;;41.87;26.70;;;4.20;49.50;;;;;;5032264;28;20687;-70
2024/03/07 02:50:31;;;;;;;43.40;27.17;;;4.10;49.70;;;;;;5032329;28;20201;-70
2024/03/07 02:52:56;;;;;;;43.53;27.80;;;4.10;50.80;;;;;;5030886;28;20577;-70
2024/03/07 02:55:22;;;;;;;46.37;29.60;;;4.00;49.10;;;;;;5031794;28;20599;-71
2024/03/07 02:57:48;;;;;;;43.73;27.23;;;3.90;49.60;;;;;;5032009;28;20253;-70
2024/03/07 03:00:20;;;;;;;48.47;27.80;;;3.80;49.10;;;;;;5035280;28;20172;-69
2024/03/07 03:02:48;;;;;;;45.50;27.63;;;3.80;49.70;;;;;;5051805;28;20225;-69
2024/03/07 03:05:15;;;;;;;43.03;27.48;;;3.70;50.30;;;;;;5051656;28;20173;-69
2024/03/07 03:07:41;;;;;;;45.22;28.23;;;3.70;51.30;;;;;;5051522;28;20189;-69
2024/03/07 03:10:09;;;;;;;42.97;30.02;;;3.70;50.00;;;;;;5051623;28;20173;-70
2024/03/07 03:12:38;;;;;;;44.55;28.63;;;3.60;49.30;;;;;;5052157;28;20176;-70
2024/03/07 03:15:07;;;;;;;50.17;29.25;;;3.50;49.50;;;;;;5050822;28;20260;-70
2024/03/07 03:17:33;;;;;;;49.63;30.08;;;3.50;50.50;;;;;;5051277;28;20208;-69
2024/03/07 03:19:59;;;;;;;51.42;28.60;;;3.40;50.50;;;;;;5033490;28;20212;-69
2024/03/07 03:22:26;;;;;;;50.83;28.90;;;3.40;50.80;;;;;;5030739;28;20269;-69
2024/03/07 03:24:55;;;;;;;54.40;31.25;;;3.30;49.60;;;;;;5031444;28;20182;-71
2024/03/07 03:27:21;;;;;;;51.05;31.27;;;3.30;51.60;;;;;;5032010;28;20185;-70
2024/03/07 03:29:47;;;;;;;62.83;32.70;;;3.30;52.60;;;;;;5041054;28;20268;-70
2024/03/07 03:32:13;;;;;;;53.08;31.98;;;3.40;53.00;;;;;;5052409;28;20208;-69
2024/03/07 03:34:39;;;;;;;49.10;30.13;;;3.40;53.10;;;;;;5052022;28;20173;-70
2024/03/07 03:37:04;;;;;;;54.53;34.00;;;3.50;53.90;;;;;;5052037;28;20236;-70
2024/03/07 03:39:30;;;;;;;66.77;34.90;;;3.50;53.20;;;;;;5052245;28;20643;-70
2024/03/07 03:41:55;;;;;;;45.43;28.80;;;3.50;52.60;;;;;;5051818;28;20688;-70
2024/03/07 03:44:21;;;;;;;51.87;32.47;;;3.50;52.00;;;;;;5051692;28;20184;-69
2024/03/07 03:46:46;;;;;;;51.10;31.03;;;3.50;52.10;;;;;;5051693;28;20180;-69
2024/03/07 03:49:12;;;;;;;54.27;34.33;;;3.60;51.10;;;;;;5051949;28;20245;-70
2024/03/07 03:51:37;;;;;;;53.43;31.57;;;3.60;50.30;;;;;;5051634;28;20205;-70
2024/03/07 03:54:03;;;;;;;50.33;30.60;;;3.60;49.20;;;;;;5051098;28;20581;-70
2024/03/07 03:56:29;;;;;;;52.13;32.97;;;3.60;48.30;;;;;;5051351;28;20203;-69
2024/03/07 03:58:54;;;;;;;59.80;31.90;;;3.60;48.80;;;;;;5051195;28;20553;-71
2024/03/07 04:01:20;;;;;;;56.37;32.53;;;3.70;48.00;;;;;;5051417;28;20205;-70
2024/03/07 04:03:48;;;;;;;61.40;32.83;;;3.70;47.10;;;;;;5051343;28;20664;-70
2024/03/07 04:06:14;;;;;;;53.80;31.10;;;3.70;46.90;;;;;;5051221;28;20174;-68
2024/03/07 04:08:39;;;;;;;58.33;35.17;;;3.70;45.60;;;;;;5050867;28;20710;-68
2024/03/07 04:11:05;;;;;;;53.43;30.17;;;3.70;44.50;;;;;;5051058;28;20205;-69
2024/03/07 04:13:31;;;;;;;52.83;31.37;;;3.80;44.80;;;;;;5051095;28;20187;-69
2024/03/07 04:15:57;;;;;;;53.58;30.75;;;3.60;42.10;;;;;;5051075;28;20203;-69
2024/03/07 04:18:22;;;;;;;53.43;31.30;;;3.60;40.70;;;;;;5049076;28;20270;-69
2024/03/07 04:20:48;;;;;;;47.53;32.20;;;3.60;40.50;;;;;;5051130;28;20201;-68
2024/03/07 04:23:14;;;;;;;60.97;34.13;;;3.50;39.50;;;;;;5051104;28;20648;-68
2024/03/07 04:25:39;;;;;;;59.20;34.07;;;3.60;40.70;;;;;;5053661;28;20180;-69
2024/03/07 04:28:05;;;;;;;51.77;32.23;;;3.60;41.20;;;;;;5046494;28;20194;-69
2024/03/07 04:30:30;;;;;;;48.77;30.57;;;3.60;40.90;;;;;;5040471;28;20209;-69
2024/03/07 04:32:58;;;;;;;51.80;30.50;;;3.50;40.70;;;;;;5038453;28;20539;-69
2024/03/07 04:35:24;;;;;;;56.95;35.00;;;3.60;40.70;;;;;;5036842;28;20173;-69
2024/03/07 04:37:50;;;;;;;56.30;34.40;;;3.50;40.50;;;;;;5050771;28;20182;-68
2024/03/07 04:40:16;;;;;;;60.50;34.70;;;3.50;40.10;;;;;;5054903;28;20413;-68
2024/03/07 04:42:43;;;;;;;45.97;29.90;;;3.40;40.40;;;;;;5054760;28;20171;-68
2024/03/07 04:45:10;;;;;;;57.22;33.40;;;3.40;40.80;;;;;;5054466;28;20169;-68
2024/03/07 04:47:36;;;;;;;55.08;30.55;;;3.40;41.60;;;;;;5040416;28;20197;-68
2024/03/07 04:50:02;;;;;;;44.97;31.60;;;3.40;40.40;;;;;;5034653;28;20205;-68
2024/03/07 04:52:28;;;;;;;54.20;31.40;;;3.40;40.20;;;;;;5034641;28;20621;-68
2024/03/07 04:54:54;;;;;;;54.90;34.93;;;3.40;39.90;;;;;;5034113;28;20186;-68
2024/03/07 04:57:20;;;;;;;49.53;31.65;;;3.40;40.60;;;;;;5045666;28;20302;-68
2024/03/07 04:59:46;;;;;;;52.90;34.20;;;3.30;40.00;;;;;;5054375;28;20694;-68
2024/03/07 05:02:11;;;;;;;53.87;33.60;;;3.30;40.90;;;;;;5052659;28;20299;-68
2024/03/07 05:04:37;;;;;;;52.70;32.33;;;3.40;41.20;;;;;;5054126;28;20176;-68
2024/03/07 05:07:03;;;;;;;60.90;34.03;;;3.30;41.00;;;;;;5045146;28;20649;-69
2024/03/07 05:09:29;;;;;;;54.37;34.57;;;3.40;42.60;;;;;;5034418;28;20183;-69
2024/03/07 05:11:54;;;;;;;53.90;33.30;;;3.40;41.90;;;;;;5034381;28;20213;-68
2024/03/07 05:14:21;;;;;;;57.13;33.40;;;3.30;41.00;;;;;;5034465;28;20189;-68
2024/03/07 05:17:04;;;;;;;57.63;33.95;;;3.30;41.10;;;;;;5051965;28;20721;-68
2024/03/07 05:19:30;;;;;;;54.10;32.75;;;3.40;41.90;;;;;;5054004;28;20173;-68
2024/03/07 05:21:56;;;;;;;60.42;33.40;;;3.40;40.40;;;;;;5053732;28;20189;-68
2024/03/07 05:24:22;;;;;;;57.90;34.97;;;3.30;40.30;;;;;;5053726;28;20191;-68
2024/03/07 05:26:47;;;;;;;54.67;35.92;;;3.30;41.20;;;;;;5037339;28;20192;-69
2024/03/07 05:29:13;;;;;;;53.77;35.57;;;3.30;41.80;;;;;;5036044;28;20190;-68
2024/03/07 05:31:46;;;;;;;54.63;35.90;;;3.30;41.90;;;;;;5033645;28;20220;-68
2024/03/07 05:34:12;;;;;;;55.63;32.75;;;3.20;40.60;;;;;;5033588;28;20545;-69
2024/03/07 05:36:45;;;;;;;59.65;34.97;;;3.20;40.50;;;;;;5036924;28;20218;-70
2024/03/07 05:39:15;;;;;;;60.33;35.58;;;3.20;41.20;;;;;;5033839;28;20181;-70
2024/03/07 05:41:42;;;;;;;60.28;34.47;;;3.20;41.70;;;;;;5033479;28;20232;-70
2024/03/07 05:44:11;;;;;;;60.33;34.28;;;3.20;41.10;;;;;;5033418;28;20181;-72
2024/03/07 05:46:41;;;;;;;62.30;36.80;;;3.20;41.10;;;;;;5051142;28;20194;-72
2024/03/07 05:49:10;;;;;;;76.63;35.65;;;3.10;40.60;;;;;;5056854;28;20173;-71
2024/03/07 05:51:36;;;;;;;61.13;35.67;;;3.10;41.20;;;;;;5054420;28;20206;-72
2024/03/07 05:54:06;;;;;;;56.73;34.70;;;3.10;42.60;;;;;;5054114;28;20644;-70
2024/03/07 05:56:33;;;;;;;61.33;35.90;;;3.10;40.70;;;;;;5038821;28;20254;-71
2024/03/07 05:59:04;;;;;;;63.88;34.20;;;3.00;41.30;;;;;;5033975;28;20178;-71
2024/03/07 06:01:34;;;;;;;71.63;35.53;;;3.00;41.60;;;;;;5032780;28;20195;-71
2024/03/07 06:04:00;;;;;;;53.00;33.78;;;3.00;43.00;;;;;;5033771;28;20191;-71
2024/03/07 06:06:27;;;;;;;62.60;36.92;;;3.20;43.30;;;;;;5047912;28;20185;-71
2024/03/07 06:08:52;;;;;;;68.88;36.33;;;3.10;41.40;;;;;;5053932;28;20549;-71
2024/03/07 06:11:21;;;;;;;60.30;37.53;;;3.10;41.10;;;;;;5052146;28;20207;-70
2024/03/07 06:13:47;;;;;;;60.40;34.42;;;3.10;41.10;;;;;;5053925;28;20517;-71
2024/03/07 06:16:14;;;;;;;64.10;35.97;;;3.00;41.20;;;;;;5041931;28;20260;-71
2024/03/07 06:18:41;;;;;;;65.07;35.85;;;3.10;41.50;;;;;;5034108;28;20204;-72
2024/03/07 06:21:08;;;;;;;66.05;36.78;;;3.10;41.80;;;;;;5033543;28;20196;-70
2024/03/07 06:23:33;;;;;;;67.07;36.25;;;3.20;41.50;;;;;;5033506;28;20671;-71
2024/03/07 06:26:00;;;;;;;69.17;38.63;;;3.20;39.50;;;;;;5047506;28;20197;-70
2024/03/07 06:28:28;;;;;;;58.30;35.53;;;3.10;38.40;;;;;;5052809;28;20267;-70
2024/03/07 06:30:54;;;;;;;71.63;38.50;;;3.20;40.60;;;;;;5052536;28;20214;-70
2024/03/07 06:33:20;;;;;;;62.30;36.63;;;3.20;37.70;;;;;;5052555;28;20179;-69
2024/03/07 06:35:46;;;;;;;68.20;38.33;;;3.20;36.60;;;;;;5039677;28;20252;-69
2024/03/07 06:38:12;;;;;;;58.77;33.10;;;3.20;38.20;;;;;;5031332;28;20186;-69
2024/03/07 06:40:42;;;;;;;70.27;37.20;;;3.20;37.50;;;;;;5045962;28;20203;-70
2024/03/07 06:43:10;;;;;;;75.35;38.80;;;3.30;37.90;;;;;;5052543;28;20453;-69
2024/03/07 06:45:38;;;;;;;61.95;34.08;;;3.30;37.20;;;;;;5041147;28;20182;-69
2024/03/07 06:48:08;;;;;;;61.33;35.25;;;3.30;36.40;;;;;;5031281;28;20248;-69
2024/03/07 06:50:37;;;;;;;68.80;37.92;;;3.30;36.70;;;;;;5032464;28;20197;-69
2024/03/07 06:53:06;;;;;;;67.90;37.00;;;3.30;35.70;;;;;;5032361;28;20582;-69
2024/03/07 06:55:33;;;;;;;61.65;34.42;;;3.10;36.60;;;;;;5042820;28;20188;-70
2024/03/07 06:57:59;;;;;;;73.70;40.45;;;3.00;37.90;;;;;;5051812;28;20224;-70
2024/03/07 07:00:26;;;;;;;73.95;40.15;;;3.10;39.10;;;;;;5051398;28;20232;-70
2024/03/07 07:02:54;;;;;;;67.22;39.50;;;3.20;39.50;;;;;;5052423;28;20199;-70
2024/03/07 07:05:20;;;;;;;63.53;37.13;;;3.20;38.80;;;;;;5043450;28;20182;-70
2024/03/07 07:07:46;;;;;;;74.70;39.50;;;3.20;39.00;;;;;;5033067;28;20236;-69
2024/03/07 07:10:18;;;;;;;66.50;38.73;;;3.20;38.50;;;;;;5031966;28;20435;-69
2024/03/07 07:12:51;;;;;;;58.30;38.00;;;3.10;37.90;;;;;;5030396;28;20812;-69
2024/03/07 07:15:18;;;;;;;72.75;39.95;;;3.10;38.50;;;;;;5031878;28;20190;-69
2024/03/07 07:17:46;;;;;;;63.85;37.83;;;3.00;38.20;;;;;;5046680;28;20314;-69
2024/03/07 07:20:14;;;;;;;75.97;38.75;;;3.00;39.90;;;;;;5051624;28;20286;-69
2024/03/07 07:22:45;;;;;;;63.75;37.53;;;3.00;39.50;;;;;;5050425;28;20683;-69
2024/03/07 07:25:15;;;;;;;62.25;38.80;;;3.00;40.40;;;;;;5050265;28;20183;-69
2024/03/07 07:27:43;;;;;;;65.80;38.05;;;3.00;40.50;;;;;;5045806;28;20181;-69
2024/03/07 07:30:13;;;;;;;53.13;32.25;;;3.00;39.70;;;;;;5051414;28;20190;-68
2024/03/07 07:32:40;;;;;;;61.80;35.88;;;3.10;41.60;;;;;;5052011;28;20243;-69
2024/03/07 07:35:11;;;;;;;61.40;37.38;;;3.10;39.70;;;;;;5051400;28;20185;-69
2024/03/07 07:37:37;;;;;;;60.03;33.08;;;3.20;37.70;;;;;;5051048;28;20237;-69
2024/03/07 07:40:03;;;;;;;64.38;35.55;;;3.20;37.40;;;;;;5051420;28;20604;-68
2024/03/07 07:42:29;;;;;;;60.70;37.15;;;3.30;36.70;;;;;;5050318;28;20249;-68
2024/03/07 07:44:54;;;;;;;65.23;35.07;;;3.40;36.00;;;;;;5038280;28;20545;-69
2024/03/07 07:47:20;;;;;;;58.27;35.10;;;3.40;34.00;;;;;;5030074;28;20183;-67
2024/03/07 07:49:46;;;;;;;64.20;37.60;;;3.30;34.20;;;;;;5047290;28;20212;-69
2024/03/07 07:52:12;;;;;;;64.23;37.20;;;3.40;34.70;;;;;;5035605;28;20201;-71
2024/03/07 07:54:42;;;;;;;64.60;37.23;;;3.40;34.90;;;;;;5037762;28;20193;-68
2024/03/07 07:57:11;;;;;;;59.85;32.95;;;3.40;35.30;;;;;;5047095;28;20459;-68
2024/03/07 07:59:36;;;;;;;63.15;36.63;;;3.40;35.10;;;;;;5047079;28;20189;-68
2024/03/07 08:02:03;;;;;;;59.43;36.73;;;3.40;34.90;;;;;;5050846;28;20211;-68
2024/03/07 08:04:29;;;;;;;69.50;37.03;;;3.40;36.80;;;;;;5042044;28;20295;-68
2024/03/07 08:06:54;;;;;;;74.23;37.53;;;3.50;36.90;;;;;;5031459;28;20265;-68
2024/03/07 08:09:21;;;;;;;64.23;37.80;;;3.50;35.40;;;;;;5032071;28;20192;-67
2024/03/07 08:11:49;;;;;;;62.00;36.85;;;3.50;36.60;;;;;;5031228;28;20201;-68
2024/03/07 08:14:15;;;;;;;61.95;39.42;;;3.50;36.90;;;;;;5032196;28;20652;-68
2024/03/07 08:16:41;;;;;;;59.80;35.07;;;3.50;36.90;;;;;;5031761;28;20227;-68
2024/03/07 08:19:08;;;;;;;61.73;33.63;;;3.60;36.10;;;;;;5041483;28;20203;-68
2024/03/07 08:21:34;;;;;;;62.47;37.00;;;3.60;35.20;;;;;;5050270;28;20253;-69
2024/03/07 08:24:03;;;;;;;67.67;37.17;;;3.50;34.90;;;;;;5052221;28;20189;-68
2024/03/07 08:26:29;;;;;;;62.95;36.53;;;3.50;35.10;;;;;;5059032;28;20203;-68
2024/03/07 08:28:54;;;;;;;66.37;35.90;;;3.50;35.90;;;;;;5050699;28;20221;-68
2024/03/07 08:31:20;;;;;;;69.90;39.20;;;3.50;34.60;;;;;;5051465;28;20259;-69
2024/03/07 08:33:46;;;;;;;60.90;39.40;;;3.40;34.20;;;;;;5049008;28;20233;-69
2024/03/07 08:36:11;;;;;;;70.70;37.67;;;3.50;34.90;;;;;;5050266;28;20208;-69
2024/03/07 08:38:37;;;;;;;65.27;36.87;;;3.50;33.90;;;;;;5050806;28;20247;-69
2024/03/07 08:41:03;;;;;;;74.90;40.00;;;3.60;34.20;;;;;;5050814;28;20274;-69
2024/03/07 08:43:28;;;;;;;59.53;36.30;;;3.80;34.20;;;;;;5050985;28;20707;-68
2024/03/07 08:45:54;;;;;;;63.77;39.20;;;3.80;32.80;;;;;;5049641;28;20458;-69
2024/03/07 08:48:19;;;;;;;65.37;37.63;;;3.90;32.50;;;;;;5050764;28;20268;-69
2024/03/07 08:50:45;;;;;;;65.00;34.60;;;4.10;30.60;;;;;;5052286;28;20219;-69
2024/03/07 08:53:10;;;;;;;61.83;32.87;;;4.20;31.10;;;;;;5052637;28;20188;-69
2024/03/07 08:55:36;;;;;;;55.70;35.30;;;4.30;29.70;;;;;;5052500;28;20186;-69
2024/03/07 08:58:02;;;;;;;57.70;36.73;;;4.40;28.00;;;;;;5052789;28;20225;-69
2024/03/07 09:00:27;;;;;;;56.77;34.33;;;4.50;26.60;;;;;;5053845;28;20222;-69
2024/03/07 09:02:55;;;;;;;64.40;37.07;;;4.60;27.40;;;;;;5051158;28;21127;-69
2024/03/07 09:05:22;;;;;;;54.17;34.40;;;4.60;25.70;;;;;;5051218;28;20264;-69
2024/03/07 09:07:49;;;;;;;70.33;35.93;;;4.60;25.70;;;;;;5049963;28;20928;-69
2024/03/07 09:10:14;;;;;;;57.37;35.90;;;4.50;26.10;;;;;;5030602;28;20453;-69
2024/03/07 09:12:40;;;;;;;74.77;38.63;;;4.60;27.10;;;;;;5028809;28;20530;-69
2024/03/07 09:15:06;;;;;;;63.97;33.20;;;4.60;26.10;;;;;;5030876;28;20183;-69
2024/03/07 09:17:32;;;;;;;61.63;33.60;;;4.60;28.10;;;;;;5030156;28;20531;-68
2024/03/07 09:19:58;;;;;;;60.37;35.30;;;4.60;26.50;;;;;;5048955;28;20425;-69
2024/03/07 09:22:23;;;;;;;67.97;36.43;;;4.60;26.20;;;;;;5052641;28;20285;-68
2024/03/07 09:24:49;;;;;;;63.33;36.43;;;4.70;25.60;;;;;;5053413;28;20416;-69
2024/03/07 09:27:19;;;;;;;54.93;32.47;;;4.90;26.10;;;;;;5053911;28;20179;-69
2024/03/07 09:29:47;;;;;;;57.30;35.13;;;5.00;25.90;;;;;;5053353;28;20175;-69
2024/03/07 09:32:13;;;;;;;58.57;32.67;;;5.10;24.40;;;;;;5053747;28;20478;-69
2024/03/07 09:34:38;;;;;;;56.70;36.30;;;5.10;25.40;;;;;;5053380;28;20444;-69
2024/03/07 09:37:06;;;;;;;61.77;37.03;;;5.20;23.90;;;;;;5054262;28;20491;-69
2024/03/07 09:39:34;;;;;;;49.30;33.50;;;5.30;23.40;;;;;;5036981;28;20244;-69
2024/03/07 09:42:03;;;;;;;59.43;35.03;;;5.50;24.90;;;;;;5033964;28;20491;-69
2024/03/07 09:44:31;;;;;;;47.83;31.00;;;5.70;20.50;;;;;;5033722;28;20483;-69
2024/03/07 09:46:58;;;;;;;64.83;37.60;;;5.80;16.40;;;;;;5033779;28;20417;-69
2024/03/07 09:49:26;;;;;;;50.30;30.97;;;5.80;15.70;;;;;;5049064;28;20481;-69
2024/03/07 09:51:54;;;;;;;51.33;33.67;;;5.80;15.40;;;;;;5052455;28;20444;-69
2024/03/07 09:54:21;;;;;;;55.20;35.40;;;5.80;16.40;;;;;;5053628;28;20436;-69
2024/03/07 09:56:49;;;;;;;49.83;32.00;;;5.70;16.30;;;;;;5053620;28;20567;-68
2024/03/07 09:59:18;;;;;;;51.00;31.90;;;5.70;17.70;;;;;;5052522;28;20961;-68
2024/03/07 10:01:45;;;;;;;51.00;31.83;;;;;;;;;;5053276;28;20438;-67
2024/03/07 10:04:14;;;;;;;46.10;33.67;;;5.80;15.90;;;;;;5052781;28;20421;-69
2024/03/07 10:06:40;;;;;;;51.50;32.00;;;5.80;15.90;;;;;;5053485;28;20483;-69
2024/03/07 10:09:13;;;;;;;64.00;35.07;;;5.70;17.20;;;;;;5052801;28;20422;-70
2024/03/07 10:11:39;;;;;;;48.87;30.73;;;5.80;15.10;;;;;;5054988;28;20429;-68
2024/03/07 10:14:04;;;;;;;60.13;34.60;;;5.80;16.40;;;;;;5059034;28;20908;-68
2024/03/07 10:16:32;;;;;;;47.80;30.47;;;5.90;15.20;;;;;;5060497;28;20540;-68
2024/03/07 10:18:57;;;;;;;49.67;31.40;;;6.00;15.40;;;;;;5043321;28;20203;-68
2024/03/07 10:21:24;;;;;;;46.37;30.27;;;6.20;14.30;;;;;;5033238;28;20468;-68
2024/03/07 10:23:51;;;;;;;46.13;30.77;;;6.40;14.20;;;;;;5032730;28;20207;-68
2024/03/07 10:26:17;;;;;;;52.13;29.80;;;6.50;12.60;;;;;;5033016;28;20443;-68
2024/03/07 10:28:43;;;;;;;54.50;27.40;;;6.60;12.00;;;;;;5033557;28;20782;-68
2024/03/07 10:31:11;;;;;;;44.63;28.40;;;6.50;11.20;;;;;;5037045;28;20472;-67
2024/03/07 10:33:40;;;;;;;44.50;27.67;;;6.60;11.10;;;;;;5028645;28;20677;-67
2024/03/07 10:36:09;;;;;;;43.67;28.60;;;6.60;10.10;;;;;;5031511;28;20543;-67
2024/03/07 10:38:38;;;;;;;39.70;27.67;;;6.70;10.10;;;;;;5040103;28;20429;-67
2024/03/07 10:41:08;;;;;;;46.73;27.57;;;6.70;8.30;;;;;;5052486;28;20432;-69
2024/03/07 10:43:37;;;;;;;40.87;27.17;;;6.70;8.30;;;;;;5052272;28;20532;-68
2024/03/07 10:46:06;;;;;;;42.50;27.20;;;6.60;9.40;;;;;;5052149;28;20419;-66
2024/03/07 10:48:41;;;;;;;37.63;25.30;;;6.60;9.70;;;;;;5045246;28;20884;-68
2024/03/07 10:51:21;;;;;;;38.30;24.87;;;6.70;8.80;;;;;;5032597;28;20441;-69
2024/03/07 10:54:01;;;;;;;44.37;29.97;;;6.60;8.30;;;;;;5032460;28;20432;-69
2024/03/07 10:56:43;;;;;;;37.67;24.97;;;6.60;10.30;;;;;;5032250;28;20470;-67
2024/03/07 10:59:20;;;;;;;39.00;22.97;;;6.60;8.20;;;;;;5033120;28;21020;-69
2024/03/07 11:02:27;;;;;;;40.83;24.27;;;6.80;8.40;;;;;;5035046;28;20444;-68
2024/03/07 11:04:53;;;;;;;27.37;17.20;;;6.90;6.40;;;;;;5051750;28;20498;-70
2024/03/07 11:07:23;;;;;;;35.23;20.47;;;7.10;1.50;;;;;;5052121;28;20931;-69
2024/03/07 11:09:51;;;;;;;27.20;17.93;;;7.10;1.00;;;;;;5038220;28;20461;-70
2024/03/07 11:12:20;;;;;;;33.50;20.20;;;7.20;1.00;;;;;;5048072;28;20827;-71
2024/03/07 11:14:48;;;;;;;34.10;20.40;;;7.30;1.00;;;;;;5052259;28;20414;-68
2024/03/07 11:17:14;;;;;;;36.20;21.80;;;7.30;1.00;;;;;;5071756;28;20457;-68
2024/03/07 11:19:41;;;;;;;38.60;23.10;;;7.40;1.00;;;;;;5071810;28;20827;-68
2024/03/07 11:22:17;;;;;;;33.63;20.93;;;7.50;1.00;;;;;;5071603;28;20459;-69
2024/03/07 11:24:43;;;;;;;26.87;17.77;;;7.70;1.00;;;;;;5071361;28;20455;-69
2024/03/07 11:27:14;;;;;;;32.87;21.70;;;7.90;1.00;;;;;;5071709;28;21103;-69
2024/03/07 11:29:43;;;;;;;36.60;20.53;;;8.00;1.00;;;;;;5071576;28;21043;-69
2024/03/07 11:32:15;;;;;;;31.27;20.10;;;8.10;1.00;;;;;;5071452;28;20465;-69
2024/03/07 11:34:42;;;;;;;30.40;19.00;;;8.40;1.00;;;;;;5070727;28;20415;-69
2024/03/07 11:37:18;;;;;;;28.40;19.43;;;;;;;;;;5071805;28;20491;-69
2024/03/07 11:39:47;;;;;;;32.27;21.17;;;8.80;1.00;;;;;;5071753;28;20916;-69
2024/03/07 11:42:28;;;;;;;34.17;20.23;;;9.10;1.00;;;;;;5071541;28;20978;-69
2024/03/07 11:44:57;;;;;;;31.13;20.43;;;9.10;1.00;;;;;;5071277;28;20408;-69
2024/03/07 11:47:29;;;;;;;30.37;19.43;;;8.90;1.00;;;;;;5071559;28;20415;-69
2024/03/07 11:49:57;;;;;;;30.30;19.13;;;8.60;1.00;;;;;;5071514;28;20449;-69
2024/03/07 11:52:23;;;;;;;33.80;19.83;;;8.90;1.00;;;;;;5071385;28;20439;-69
2024/03/07 11:54:49;;;;;;;27.03;19.17;;;8.90;1.00;;;;;;5071473;28;20423;-70
2024/03/07 11:57:32;;;;;;;30.07;20.77;;;9.00;1.00;;;;;;5071946;28;20505;-69
2024/03/07 12:00:00;;;;;;;29.80;20.03;;;9.10;1.00;;;;;;5071573;28;20173;-69
2024/03/07 12:02:27;;;;;;;26.67;17.67;;;9.10;1.00;;;;;;5071938;28;20408;-69
2024/03/07 12:04:53;;;;;;;34.00;22.60;;;8.80;1.00;;;;;;5071629;28;20444;-69
2024/03/07 12:07:22;;;;;;;33.43;19.67;;;8.90;1.00;;;;;;5072466;28;20476;-69
2024/03/07 12:09:53;;;;;;;32.57;21.03;;;8.70;1.00;;;;;;5072090;28;20469;-69
2024/03/07 12:12:29;;;;;;;34.40;21.70;;;8.40;1.00;;;;;;5072022;28;20437;-69
2024/03/07 12:14:55;;;;;;;26.70;20.37;;;8.30;1.00;;;;;;5071478;28;20445;-68
2024/03/07 12:17:22;;;;;;;29.20;20.80;;;8.10;1.00;;;;;;5071477;28;20494;-70
2024/03/07 12:19:51;;;;;;;30.13;21.07;;;7.90;1.00;;;;;;5071410;28;20411;-69
2024/03/07 12:22:22;;;;;;;32.20;19.80;;;8.00;1.00;;;;;;5071669;28;20435;-69
2024/03/07 12:25:02;;;;;;;31.30;21.93;;;7.80;1.00;;;;;;5071404;28;20418;-69
2024/03/07 12:27:28;;;;;;;38.90;25.87;;;7.70;1.00;;;;;;5071581;28;20421;-69
2024/03/07 12:29:53;;;;;;;33.20;21.70;;;7.40;1.00;;;;;;5070458;28;20963;-69
2024/03/07 12:32:20;;;;;;;34.87;23.20;;;7.30;1.00;;;;;;5069959;28;20469;-69
2024/03/07 12:34:54;;;;;;;35.10;23.37;;;7.40;1.00;;;;;;5071340;28;20181;-70
2024/03/07 12:37:26;;;;;;;31.07;20.37;;;7.60;1.00;;;;;;5071385;28;20603;-69
2024/03/07 12:40:05;;;;;;;37.60;21.17;;;7.70;1.00;;;;;;5070165;28;20445;-70
2024/03/07 12:42:31;;;;;;;35.47;22.27;;;7.50;1.00;;;;;;5071478;28;20438;-69
2024/03/07 12:44:59;;;;;;;33.53;22.80;;;7.40;1.00;;;;;;5071203;28;20411;-69